createdAt,value
2022-11-05T00:26:28.623Z,25.2
2022-11-05T00:49:30.948Z,25.2
2022-11-05T01:12:53.129Z,25.2
2022-11-05T01:44:00.433Z,25.1
2022-11-05T02:15:01.170Z,25.1
2022-11-05T02:38:16.763Z,25
2022-11-05T03:01:32.339Z,25
2022-11-05T03:32:33.065Z,24.9
2022-11-05T03:55:48.628Z,24.9
2022-11-05T04:11:19.089Z,24.9
2022-11-05T04:50:05.055Z,24.8
2022-11-05T05:20:59.287Z,24.8
2022-11-05T05:59:38.645Z,24.8
2022-11-05T06:23:00.820Z,24.8
2022-11-05T06:46:16.456Z,24.7
2022-11-05T07:25:08.988Z,24.8
2022-11-05T07:48:11.356Z,24.9
2022-11-05T08:11:33.617Z,24.8
2022-11-05T08:42:35.094Z,23.9
2022-11-05T09:05:50.999Z,23.7
2022-11-05T09:29:13.241Z,23.8
2022-11-05T10:07:46.054Z,23.9
2022-11-05T10:46:39.524Z,23.4
2022-11-05T11:10:02.781Z,22.1
2022-11-05T11:25:27.322Z,21.4
2022-11-05T11:56:35.409Z,21.1
2022-11-05T12:19:37.972Z,21.5
2022-11-05T12:50:38.932Z,22.1
2022-11-05T13:21:40.667Z,21.7
2022-11-05T13:52:56.213Z,20.6
2022-11-05T14:16:06.395Z,19.9
2022-11-05T14:47:15.258Z,19.2
2022-11-05T15:02:39.813Z,18.9
2022-11-05T15:41:21.239Z,18.1
2022-11-05T16:04:38.150Z,17.7
2022-11-05T16:35:40.707Z,17.2
2022-11-05T16:59:03.850Z,17.3
2022-11-05T17:45:35.820Z,18.7
2022-11-05T18:16:30.355Z,19.7
2022-11-05T18:32:07.491Z,20.1
2022-11-05T18:55:16.674Z,20.6
2022-11-05T19:34:02.845Z,21.6
2022-11-05T19:57:18.531Z,22
2022-11-05T20:05:16.887Z,22.2
2022-11-05T20:36:04.597Z,22.7
2022-11-05T20:51:48.162Z,22.9
2022-11-05T21:30:27.510Z,23.4
2022-11-05T21:53:49.730Z,23.7
2022-11-05T22:16:58.659Z,23.8
2022-11-05T22:47:52.810Z,24.1
2022-11-05T23:18:53.514Z,24.3
2022-11-05T23:42:22.176Z,24.4
